Time;durP1;ratioP1;P1;durP2;ratioP2;P2;SDS_P1;SDS_P2;PMS_P1;PMS_P2;Temp;Humidity;BMP_temperature;BMP_pressure;BME280_temperature;BME280_humidity;BME280_pressure;Samples;Min_cycle;Max_cycle;Signal;HPM_P1;HPM_P2
2023/11/21 00:00:02;;;;;;;77.80;49.40;;;205.00;2252.80;;;;;;5047614;28;20029;-59
2023/11/21 00:02:48;;;;;;;67.63;40.85;;;205.10;2252.80;;;;;;5045778;28;20045;-59
2023/11/21 00:05:17;;;;;;;40.90;29.13;;;205.20;2252.80;;;;;;5046649;28;20499;-59
2023/11/21 00:07:43;;;;;;;33.40;22.05;;;205.10;2252.80;;;;;;5051272;28;20029;-59
2023/11/21 00:10:10;;;;;;;38.95;25.83;;;204.90;2252.80;;;;;;5056954;28;20434;-59
2023/11/21 00:12:36;;;;;;;27.95;18.58;;;180.10;2252.80;;;;;;5058299;28;20016;-58
2023/11/21 00:15:05;;;;;;;31.70;21.50;;;204.90;2252.80;;;;;;5059286;28;20032;-59
2023/11/21 00:17:46;;;;;;;26.90;19.85;;;204.90;2252.80;;;;;;5057517;28;20025;-59
2023/11/21 00:20:13;;;;;;;24.05;20.25;;;205.00;2252.80;;;;;;5055560;28;20029;-59
2023/11/21 00:22:40;;;;;;;43.88;36.03;;;205.00;2252.80;;;;;;5057531;28;20360;-59
2023/11/21 00:25:08;;;;;;;50.22;39.83;;;205.20;2252.80;;;;;;5059381;28;20047;-59
2023/11/21 00:27:38;;;;;;;30.15;19.25;;;205.10;2252.80;;;;;;5058420;28;20017;-57
2023/11/21 00:30:08;;;;;;;22.38;16.73;;;205.10;2252.80;;;;;;5057516;28;20114;-59
2023/11/21 00:32:35;;;;;;;26.73;20.67;;;205.20;2252.80;;;;;;5052358;28;20029;-58
2023/11/21 00:35:01;;;;;;;32.67;25.15;;;205.30;2252.80;;;;;;5033966;28;20484;-60
2023/11/21 00:37:27;;;;;;;37.63;31.17;;;205.30;2252.80;;;;;;5052403;28;20029;-60
2023/11/21 00:39:53;;;;;;;54.53;44.08;;;205.40;2252.80;;;;;;5052764;28;20028;-59
2023/11/21 00:42:18;;;;;;;59.35;45.25;;;205.40;2252.80;;;;;;5052598;28;20020;-59
2023/11/21 00:44:44;;;;;;;40.50;30.65;;;205.40;2252.80;;;;;;5052073;28;20494;-60
2023/11/21 00:47:10;;;;;;;23.58;17.83;;;205.50;2252.80;;;;;;5052276;28;20036;-59
2023/11/21 00:49:36;;;;;;;45.22;26.17;;;205.40;2252.80;;;;;;5052173;28;20032;-59
2023/11/21 00:52:02;;;;;;;26.77;17.85;;;205.20;2252.80;;;;;;5051985;28;20032;-59
2023/11/21 00:54:28;;;;;;;32.00;21.75;;;205.30;2252.80;;;;;;5051071;28;20079;-59
2023/11/21 00:56:54;;;;;;;29.65;19.42;;;205.10;2252.80;;;;;;5051637;28;20014;-58
2023/11/21 00:59:19;;;;;;;26.27;17.48;;;205.10;2252.80;;;;;;5051614;28;20032;-59
2023/11/21 01:01:45;;;;;;;21.77;14.25;;;205.20;2252.80;;;;;;5051203;28;20061;-58
2023/11/21 01:04:11;;;;;;;18.58;13.00;;;205.20;2252.80;;;;;;5050895;28;20120;-58
2023/11/21 01:06:37;;;;;;;72.78;44.15;;;205.20;2252.80;;;;;;5051082;28;20025;-60
2023/11/21 01:09:07;;;;;;;43.92;28.98;;;205.40;2252.80;;;;;;5033175;28;20120;-58
2023/11/21 01:11:37;;;;;;;29.23;21.48;;;205.40;2252.80;;;;;;5048701;28;20029;-58
2023/11/21 01:14:04;;;;;;;22.40;16.20;;;205.40;2252.80;;;;;;5051171;28;20017;-59
2023/11/21 01:16:31;;;;;;;26.23;18.67;;;205.40;2252.80;;;;;;5033203;28;20419;-59
2023/11/21 01:18:57;;;;;;;26.60;16.73;;;205.40;2252.80;;;;;;5050707;28;20021;-59
2023/11/21 01:21:22;;;;;;;41.50;27.77;;;205.40;2252.80;;;;;;5051197;28;20025;-59
2023/11/21 01:23:48;;;;;;;75.90;49.28;;;205.30;2252.80;;;;;;5050574;28;20021;-58
2023/11/21 01:26:14;;;;;;;110.63;69.45;;;205.30;2252.80;;;;;;5051029;28;20116;-59
2023/11/21 01:28:39;;;;;;;72.88;46.72;;;205.20;2252.80;;;;;;5050896;28;20017;-59
2023/11/21 01:31:07;;;;;;;28.50;20.65;;;205.30;2252.80;;;;;;5050666;28;20448;-58
2023/11/21 01:33:33;;;;;;;31.33;21.38;;;205.20;2252.80;;;;;;5048013;28;20048;-58
2023/11/21 01:35:59;;;;;;;85.43;50.47;;;205.20;2252.80;;;;;;5050327;28;20036;-58
2023/11/21 01:38:25;;;;;;;93.63;62.25;;;205.20;2252.80;;;;;;5065878;28;20136;-59
2023/11/21 01:40:51;;;;;;;53.45;32.10;;;205.20;2252.80;;;;;;5050508;28;20029;-60
2023/11/21 01:43:17;;;;;;;24.38;16.20;;;205.30;2252.80;;;;;;5049737;28;20021;-60
2023/11/21 01:45:45;;;;;;;27.98;17.98;;;205.30;2252.80;;;;;;5050759;28;20378;-59
2023/11/21 01:48:10;;;;;;;35.00;25.73;;;205.20;2252.80;;;;;;5050292;28;20013;-59
2023/11/21 01:50:36;;;;;;;36.63;27.30;;;205.20;2252.80;;;;;;5050481;28;20477;-59
2023/11/21 01:53:03;;;;;;;46.33;29.33;;;205.20;2252.80;;;;;;5050263;28;20025;-59
2023/11/21 01:55:29;;;;;;;43.15;29.08;;;205.30;2252.80;;;;;;5050015;28;20068;-59
2023/11/21 01:57:57;;;;;;;24.35;18.13;;;205.30;2252.80;;;;;;5050248;28;20043;-60
2023/11/21 02:00:24;;;;;;;17.65;12.48;;;205.20;2252.80;;;;;;5050249;28;20065;-58
2023/11/21 02:02:49;;;;;;;27.88;17.45;;;205.20;2252.80;;;;;;5049766;28;20053;-59
2023/11/21 02:05:19;;;;;;;25.42;16.88;;;205.20;2252.80;;;;;;5049986;28;20040;-59
2023/11/21 02:07:48;;;;;;;26.92;15.55;;;205.10;2252.80;;;;;;5050070;28;20758;-59
2023/11/21 02:10:15;;;;;;;20.67;14.23;;;205.10;2252.80;;;;;;5047730;28;20087;-59
2023/11/21 02:12:42;;;;;;;25.73;16.27;;;205.10;2252.80;;;;;;5050016;28;20028;-60
2023/11/21 02:15:16;;;;;;;29.75;19.88;;;205.10;2252.80;;;;;;5049718;28;20096;-60
2023/11/21 02:17:47;;;;;;;25.20;16.38;;;205.00;2252.80;;;;;;5058690;28;20048;-56
2023/11/21 02:20:17;;;;;;;43.40;29.95;;;205.10;2252.80;;;;;;5058686;28;20028;-59
2023/11/21 02:22:45;;;;;;;190.90;106.65;;;205.00;2252.80;;;;;;5059743;28;20024;-58
2023/11/21 02:25:11;;;;;;;174.75;99.82;;;204.90;2252.80;;;;;;5060698;28;20078;-58
2023/11/21 02:27:37;;;;;;;79.00;48.92;;;204.90;2252.80;;;;;;5058979;28;20033;-60
2023/11/21 02:30:04;;;;;;;44.55;30.33;;;204.90;2252.80;;;;;;5059272;28;20036;-59
2023/11/21 02:32:31;;;;;;;53.35;34.13;;;204.90;2252.80;;;;;;5060521;28;20025;-59
2023/11/21 02:35:00;;;;;;;75.13;44.55;;;204.90;2252.80;;;;;;5067307;28;20032;-60
2023/11/21 02:37:26;;;;;;;93.00;53.72;;;205.00;2252.80;;;;;;5070329;28;20017;-59
2023/11/21 02:39:52;;;;;;;75.80;49.80;;;205.10;2252.80;;;;;;5070341;28;20031;-59
2023/11/21 02:42:18;;;;;;;54.05;31.33;;;205.10;2252.80;;;;;;5070000;28;20099;-59
2023/11/21 02:44:44;;;;;;;52.92;40.33;;;205.10;2252.80;;;;;;5069956;28;20497;-59
2023/11/21 02:47:10;;;;;;;35.40;22.02;;;205.10;2252.80;;;;;;5070072;28;20025;-59
2023/11/21 02:49:35;;;;;;;35.30;22.48;;;205.20;2252.80;;;;;;5069742;28;20044;-59
2023/11/21 02:52:01;;;;;;;44.28;28.35;;;205.20;2252.80;;;;;;5070098;28;20028;-59
2023/11/21 02:54:27;;;;;;;25.77;16.00;;;205.20;2252.80;;;;;;5069901;28;20027;-59
2023/11/21 02:56:53;;;;;;;26.00;18.77;;;205.20;2252.80;;;;;;5070241;28;20020;-59
2023/11/21 02:59:19;;;;;;;22.75;15.30;;;205.30;2252.80;;;;;;5069908;28;20498;-59
2023/11/21 03:01:46;;;;;;;35.00;21.83;;;205.40;2252.80;;;;;;5069518;28;20094;-59
2023/11/21 03:04:17;;;;;;;30.55;19.55;;;205.40;2252.80;;;;;;5069513;28;20044;-58
2023/11/21 03:06:44;;;;;;;39.00;24.95;;;205.40;2252.80;;;;;;5070145;28;20024;-59
2023/11/21 03:09:11;;;;;;;23.25;16.27;;;205.50;2252.80;;;;;;5069627;28;20025;-59
2023/11/21 03:11:37;;;;;;;17.75;12.07;;;205.40;2252.80;;;;;;5069595;28;20501;-60
2023/11/21 03:14:03;;;;;;;13.15;10.15;;;205.40;2252.80;;;;;;5069781;28;20029;-59
2023/11/21 03:16:29;;;;;;;20.23;17.63;;;205.40;2252.80;;;;;;5069611;28;20024;-59
2023/11/21 03:18:55;;;;;;;17.80;11.55;;;205.50;2252.80;;;;;;5069422;28;20021;-59
2023/11/21 03:21:20;;;;;;;18.92;11.10;;;205.40;2252.80;;;;;;5069593;28;20383;-59
2023/11/21 03:23:46;;;;;;;16.80;10.82;;;205.50;2252.80;;;;;;5069332;28;20475;-59
2023/11/21 03:26:12;;;;;;;14.95;10.48;;;205.50;2252.80;;;;;;5069492;28;20029;-59
2023/11/21 03:28:39;;;;;;;14.68;10.88;;;205.50;2252.80;;;;;;5069291;28;20037;-60
2023/11/21 03:31:06;;;;;;;25.83;14.32;;;205.50;2252.80;;;;;;5069414;28;20106;-59
2023/11/21 03:33:32;;;;;;;25.48;18.05;;;205.50;2252.80;;;;;;5069233;28;20537;-59
2023/11/21 03:35:58;;;;;;;15.95;11.75;;;205.50;2252.80;;;;;;5069166;28;20111;-60
2023/11/21 03:38:23;;;;;;;15.48;11.80;;;205.50;2252.80;;;;;;5069880;28;20112;-59
2023/11/21 03:40:50;;;;;;;15.90;12.25;;;205.60;2252.80;;;;;;5069451;28;20028;-60
2023/11/21 03:43:16;;;;;;;17.20;11.32;;;205.60;2252.80;;;;;;5069455;28;20518;-60
2023/11/21 03:45:42;;;;;;;18.35;14.63;;;205.70;2252.80;;;;;;5069340;28;20059;-59
2023/11/21 03:48:08;;;;;;;18.60;14.10;;;205.70;2252.80;;;;;;5069361;28;20021;-60
2023/11/21 03:50:35;;;;;;;24.17;19.95;;;205.70;2252.80;;;;;;5069186;28;20103;-59
2023/11/21 03:53:00;;;;;;;15.57;10.20;;;205.70;2252.80;;;;;;5069305;28;20024;-59
2023/11/21 03:55:26;;;;;;;11.52;8.63;;;205.60;2252.80;;;;;;5069420;28;20029;-60
2023/11/21 03:57:52;;;;;;;13.13;9.55;;;205.60;2252.80;;;;;;5069513;28;20060;-59
2023/11/21 04:00:20;;;;;;;10.93;8.25;;;205.40;2252.80;;;;;;5068858;28;20060;-59
2023/11/21 04:02:46;;;;;;;11.98;7.63;;;205.40;2252.80;;;;;;5069163;28;20052;-59
2023/11/21 04:05:12;;;;;;;12.80;10.20;;;205.40;2252.80;;;;;;5068702;28;20089;-59
2023/11/21 04:07:38;;;;;;;11.10;8.23;;;205.40;2252.80;;;;;;5072203;28;20021;-59
2023/11/21 04:10:12;;;;;;;18.95;9.20;;;205.60;2252.80;;;;;;5072796;28;20062;-60
2023/11/21 04:12:38;;;;;;;10.13;6.55;;;205.60;2252.80;;;;;;5072927;28;20020;-60
2023/11/21 04:15:04;;;;;;;7.38;5.75;;;205.60;2252.80;;;;;;5072951;28;20021;-59
2023/11/21 04:17:30;;;;;;;7.53;5.18;;;205.70;2252.80;;;;;;5072616;28;20021;-59
2023/11/21 04:19:56;;;;;;;32.80;18.88;;;205.70;2252.80;;;;;;5072515;28;20130;-60
2023/11/21 04:22:22;;;;;;;39.60;21.98;;;205.70;2252.80;;;;;;5073092;28;20111;-59
2023/11/21 04:24:49;;;;;;;42.20;23.75;;;205.70;2252.80;;;;;;5072587;28;20029;-60
2023/11/21 04:27:14;;;;;;;41.22;25.65;;;230.40;2252.80;;;;;;5072816;28;20029;-59
2023/11/21 04:29:41;;;;;;;31.50;20.30;;;230.40;2252.80;;;;;;5072302;28;20055;-59
2023/11/21 04:32:07;;;;;;;54.45;38.83;;;230.40;2252.80;;;;;;5072605;28;20037;-59
2023/11/21 04:34:34;;;;;;;86.60;55.17;;;230.40;2252.80;;;;;;5072356;28;20099;-58
2023/11/21 04:37:00;;;;;;;68.10;46.08;;;205.70;2252.80;;;;;;5072101;28;20074;-57
2023/11/21 04:39:26;;;;;;;26.55;18.80;;;205.70;2252.80;;;;;;5072419;28;20029;-60
2023/11/21 04:41:52;;;;;;;18.80;12.32;;;205.70;2252.80;;;;;;5072412;28;20028;-59
2023/11/21 04:44:17;;;;;;;11.95;8.68;;;205.60;2252.80;;;;;;5072096;28;20081;-60
2023/11/21 04:46:43;;;;;;;12.90;8.80;;;205.60;2252.80;;;;;;5072503;28;20410;-59
2023/11/21 04:49:09;;;;;;;25.10;22.40;;;205.60;2252.80;;;;;;5071874;28;20047;-60
2023/11/21 04:51:34;;;;;;;15.00;11.02;;;205.60;2252.80;;;;;;5072082;28;20383;-59
2023/11/21 04:54:00;;;;;;;14.13;9.27;;;205.60;2252.80;;;;;;5072094;28;20028;-59
2023/11/21 04:56:26;;;;;;;12.30;7.85;;;205.70;2252.80;;;;;;5072286;28;20053;-59
2023/11/21 04:58:52;;;;;;;42.15;26.00;;;205.70;2252.80;;;;;;5072086;28;20020;-60
2023/11/21 05:01:19;;;;;;;41.92;26.08;;;230.40;2252.80;;;;;;5071844;28;20506;-60
2023/11/21 05:03:44;;;;;;;35.92;18.85;;;230.60;2252.80;;;;;;5071611;28;20064;-59
2023/11/21 05:06:10;;;;;;;80.57;44.95;;;230.60;2252.80;;;;;;5071708;28;20033;-59
2023/11/21 05:08:37;;;;;;;81.57;50.28;;;230.60;2252.80;;;;;;5072116;28;20025;-60
2023/11/21 05:11:03;;;;;;;31.27;20.10;;;230.60;2252.80;;;;;;5072009;28;20064;-60
2023/11/21 05:13:29;;;;;;;26.15;17.25;;;230.50;2252.80;;;;;;5071776;28;20077;-60
2023/11/21 05:15:58;;;;;;;18.10;11.77;;;230.50;2252.80;;;;;;5071844;28;20016;-59
2023/11/21 05:18:26;;;;;;;18.52;15.50;;;230.60;2252.80;;;;;;5070688;28;20096;-59
2023/11/21 05:20:53;;;;;;;47.53;30.92;;;230.50;2252.80;;;;;;5071368;28;20491;-59
2023/11/21 05:23:19;;;;;;;63.38;40.97;;;230.40;2252.80;;;;;;5071648;28;20460;-59
2023/11/21 05:25:46;;;;;;;109.32;68.20;;;230.40;2252.80;;;;;;5071410;28;20467;-59
2023/11/21 05:28:12;;;;;;;71.95;48.05;;;205.60;2252.80;;;;;;5071434;28;20037;-60
2023/11/21 05:30:39;;;;;;;95.07;58.88;;;205.60;2252.80;;;;;;5065350;28;20068;-59
2023/11/21 05:33:05;;;;;;;79.22;48.22;;;205.60;2252.80;;;;;;5051129;28;20078;-59
2023/11/21 05:35:31;;;;;;;112.13;70.47;;;205.50;2252.80;;;;;;5050959;28;20029;-59
2023/11/21 05:37:56;;;;;;;97.30;57.40;;;205.60;2252.80;;;;;;5051579;28;20028;-60
2023/11/21 05:40:22;;;;;;;68.15;42.25;;;205.60;2252.80;;;;;;5051591;28;20025;-59
2023/11/21 05:42:51;;;;;;;80.30;49.78;;;205.60;2252.80;;;;;;5049290;28;20036;-59
2023/11/21 05:45:18;;;;;;;101.03;76.25;;;205.70;2252.80;;;;;;5049648;28;20430;-60
2023/11/21 05:47:48;;;;;;;114.75;76.93;;;205.60;2252.80;;;;;;5049832;28;20138;-60
2023/11/21 05:50:15;;;;;;;101.45;72.10;;;205.70;2252.80;;;;;;5049297;28;20098;-59
2023/11/21 05:52:46;;;;;;;106.35;74.53;;;205.70;2252.80;;;;;;5049537;28;20028;-60
2023/11/21 05:55:12;;;;;;;162.95;112.50;;;205.50;2252.80;;;;;;5048830;28;20021;-59
2023/11/21 05:57:39;;;;;;;68.13;47.28;;;205.60;2252.80;;;;;;5049514;28;20024;-59
2023/11/21 06:00:22;;;;;;;102.13;68.50;;;205.60;2252.80;;;;;;5049401;28;20353;-59
2023/11/21 06:02:55;;;;;;;98.65;65.93;;;205.50;2252.80;;;;;;5049136;28;20126;-59
2023/11/21 06:05:25;;;;;;;71.93;49.72;;;205.60;2252.80;;;;;;5048888;28;20121;-59
2023/11/21 06:07:58;;;;;;;85.40;56.92;;;205.60;2252.80;;;;;;5049238;28;20086;-60
2023/11/21 06:10:24;;;;;;;66.15;44.97;;;205.70;2252.80;;;;;;5047530;28;20807;-59
2023/11/21 06:12:51;;;;;;;60.22;42.10;;;205.60;2252.80;;;;;;5050430;28;20040;-59
2023/11/21 06:15:19;;;;;;;56.20;42.70;;;230.40;2252.80;;;;;;5049111;28;20025;-60
2023/11/21 06:17:45;;;;;;;81.72;58.67;;;230.40;2252.80;;;;;;5049090;28;20036;-59
2023/11/21 06:20:13;;;;;;;65.35;45.38;;;230.50;2252.80;;;;;;5048912;28;20029;-60
2023/11/21 06:22:41;;;;;;;67.25;48.45;;;230.40;2252.80;;;;;;5047532;28;20053;-59
2023/11/21 06:25:08;;;;;;;68.63;47.25;;;230.50;2252.80;;;;;;5045581;28;20021;-59
2023/11/21 06:27:39;;;;;;;52.83;39.08;;;230.50;2252.80;;;;;;5048727;28;20028;-60
2023/11/21 06:30:06;;;;;;;53.00;37.97;;;230.60;2252.80;;;;;;5047606;28;20060;-59
2023/11/21 06:32:32;;;;;;;33.50;23.67;;;230.60;2252.80;;;;;;5049128;28;20042;-59
2023/11/21 06:35:01;;;;;;;44.60;30.73;;;230.70;2252.80;;;;;;5048152;28;20036;-59
2023/11/21 06:37:28;;;;;;;27.60;18.83;;;230.70;2252.80;;;;;;5048607;28;20029;-60
2023/11/21 06:39:56;;;;;;;32.65;21.38;;;230.80;2252.80;;;;;;5048575;28;20064;-59
2023/11/21 06:42:23;;;;;;;24.63;19.05;;;230.80;2252.80;;;;;;5049794;28;20017;-59
2023/11/21 06:44:51;;;;;;;22.23;18.30;;;230.80;2252.80;;;;;;5050348;28;20075;-59
2023/11/21 06:47:17;;;;;;;28.25;19.67;;;230.80;2252.80;;;;;;5050511;28;20036;-60
2023/11/21 06:49:43;;;;;;;23.77;16.67;;;230.90;2252.80;;;;;;5049898;28;20028;-59
2023/11/21 06:52:09;;;;;;;32.90;25.05;;;230.90;2252.80;;;;;;5049962;28;20108;-59
2023/11/21 06:54:36;;;;;;;55.88;39.33;;;230.90;2252.80;;;;;;5051556;28;20176;-60
2023/11/21 06:57:02;;;;;;;28.23;22.52;;;230.90;2252.80;;;;;;5053822;28;20029;-59
2023/11/21 06:59:31;;;;;;;12.88;9.30;;;231.00;2252.80;;;;;;5053532;28;20021;-60
2023/11/21 07:01:57;;;;;;;10.65;7.63;;;231.00;2252.80;;;;;;5054733;28;20048;-63
2023/11/21 07:04:24;;;;;;;15.35;11.70;;;231.10;2252.80;;;;;;5053522;28;20052;-61
2023/11/21 07:06:49;;;;;;;12.90;8.70;;;231.20;2252.80;;;;;;5051912;28;20423;-60
2023/11/21 07:09:15;;;;;;;36.17;25.83;;;231.00;2252.80;;;;;;5049303;28;20070;-58
2023/11/21 07:11:41;;;;;;;45.20;30.13;;;231.00;2252.80;;;;;;5049411;28;20040;-59
2023/11/21 07:14:07;;;;;;;42.15;33.28;;;231.30;2252.80;;;;;;5049504;28;20074;-59
2023/11/21 07:16:39;;;;;;;22.42;19.85;;;256.00;2252.80;;;;;;5049093;28;20025;-58
2023/11/21 07:19:08;;;;;;;48.50;23.48;;;256.20;2252.80;;;;;;5049224;28;20086;-58
2023/11/21 07:21:34;;;;;;;24.00;14.73;;;256.20;2252.80;;;;;;5049854;28;20052;-59
2023/11/21 07:24:06;;;;;;;17.75;13.60;;;256.20;2252.80;;;;;;5049526;28;20044;-59
2023/11/21 07:26:31;;;;;;;20.90;16.75;;;256.20;2252.80;;;;;;5031380;28;20442;-58
2023/11/21 07:28:57;;;;;;;35.25;22.52;;;256.20;2252.80;;;;;;5049101;28;20024;-59
2023/11/21 07:31:24;;;;;;;35.10;24.58;;;256.40;2252.80;;;;;;5048964;28;20040;-59
2023/11/21 07:33:50;;;;;;;43.38;30.73;;;256.50;2252.80;;;;;;5049684;28;20021;-60
2023/11/21 07:36:18;;;;;;;45.33;31.40;;;256.40;2252.80;;;;;;5049662;28;20048;-59
2023/11/21 07:38:44;;;;;;;41.13;28.38;;;256.50;2252.80;;;;;;5031487;28;20874;-59
2023/11/21 07:41:11;;;;;;;136.27;99.07;;;256.70;2252.80;;;;;;5049924;28;20452;-59
2023/11/21 07:43:37;;;;;;;80.05;55.22;;;256.50;2252.80;;;;;;5053636;28;20025;-59
2023/11/21 07:46:03;;;;;;;71.20;47.40;;;256.70;2252.80;;;;;;5053591;28;20074;-59
2023/11/21 07:48:31;;;;;;;221.30;175.40;;;256.80;2252.80;;;;;;5053571;28;20551;-59
2023/11/21 07:50:58;;;;;;;292.55;230.20;;;256.70;2252.80;;;;;;5053398;28;20039;-59
2023/11/21 07:53:25;;;;;;;194.27;145.55;;;256.60;2252.80;;;;;;5053535;28;20032;-59
2023/11/21 07:55:51;;;;;;;253.52;198.75;;;256.70;2252.80;;;;;;5052602;28;20479;-60
2023/11/21 07:58:18;;;;;;;316.25;247.80;;;256.90;2252.80;;;;;;5053133;28;20021;-60
2023/11/21 08:00:44;;;;;;;239.43;187.35;;;256.70;2252.80;;;;;;5053386;28;20043;-59
2023/11/21 08:03:11;;;;;;;97.22;76.60;;;256.80;2252.80;;;;;;5053200;28;20041;-59
2023/11/21 08:05:37;;;;;;;86.20;69.28;;;281.60;2278.40;;;;;;5053153;28;20396;-59
2023/11/21 08:08:03;;;;;;;67.10;52.28;;;256.90;2252.80;;;;;;5068430;28;20030;-59
2023/11/21 08:10:30;;;;;;;158.63;120.03;;;281.60;2278.40;;;;;;5052310;28;20037;-60
2023/11/21 08:12:55;;;;;;;84.60;64.55;;;281.70;2278.40;;;;;;5053023;28;20025;-60
2023/11/21 08:15:21;;;;;;;143.68;107.10;;;281.70;2278.40;;;;;;5052971;28;20387;-60
2023/11/21 08:17:48;;;;;;;121.47;91.32;;;281.60;2278.40;;;;;;5053100;28;20028;-64
2023/11/21 08:20:16;;;;;;;97.75;71.55;;;281.60;2278.40;;;;;;5052939;28;20037;-62
2023/11/21 08:22:42;;;;;;;78.32;58.42;;;281.90;2278.40;;;;;;5052313;28;20029;-63
2023/11/21 08:25:08;;;;;;;122.22;96.35;;;282.00;2278.40;;;;;;5052600;28;20018;-62
2023/11/21 08:27:34;;;;;;;149.43;115.82;;;282.10;2278.40;;;;;;5052770;28;20387;-61
2023/11/21 08:30:01;;;;;;;324.92;246.48;;;282.00;2278.40;;;;;;5052491;28;20056;-62
2023/11/21 08:32:27;;;;;;;278.05;222.85;;;281.90;2278.40;;;;;;5052718;28;20032;-62
2023/11/21 08:34:52;;;;;;;242.65;185.48;;;282.10;2278.40;;;;;;5052765;28;20387;-63
2023/11/21 08:37:18;;;;;;;237.02;187.70;;;282.30;2278.40;;;;;;5052459;28;20029;-62
2023/11/21 08:39:45;;;;;;;206.00;153.75;;;282.10;2278.40;;;;;;5052053;28;20071;-63
2023/11/21 08:42:10;;;;;;;167.43;125.95;;;281.70;2278.40;;;;;;5052351;28;20025;-62
2023/11/21 08:44:36;;;;;;;178.85;135.88;;;256.90;2252.80;;;;;;5052397;28;20116;-62
2023/11/21 08:47:02;;;;;;;157.10;121.00;;;281.90;2278.40;;;;;;5052225;28;20075;-62
2023/11/21 08:49:29;;;;;;;151.55;112.20;;;282.00;2278.40;;;;;;5052272;28;20032;-62
2023/11/21 08:51:59;;;;;;;225.00;174.32;;;282.20;2278.40;;;;;;5051734;28;20108;-63
2023/11/21 08:54:25;;;;;;;236.85;192.20;;;281.70;2278.40;;;;;;5052448;28;20025;-62
2023/11/21 08:56:52;;;;;;;441.50;309.25;;;281.60;2278.40;;;;;;5052179;28;20032;-62
2023/11/21 08:59:19;;;;;;;519.33;364.95;;;281.60;2278.40;;;;;;5051651;28;20025;-63
2023/11/21 09:01:46;;;;;;;401.08;278.75;;;281.70;2278.40;;;;;;5052030;28;20040;-62
2023/11/21 09:04:12;;;;;;;403.88;298.90;;;282.10;2278.40;;;;;;5051382;28;20041;-61
2023/11/21 09:06:39;;;;;;;521.92;384.60;;;282.10;2278.40;;;;;;5051737;28;20032;-62
2023/11/21 09:09:06;;;;;;;1038.20;661.13;;;282.00;2278.40;;;;;;5051119;28;20393;-61
2023/11/21 09:11:33;;;;;;;477.10;327.25;;;281.80;2278.40;;;;;;5051222;28;20490;-63
2023/11/21 09:14:00;;;;;;;337.67;234.10;;;256.70;2252.80;;;;;;5051403;28;20027;-62
2023/11/21 09:16:26;;;;;;;377.70;257.73;;;256.60;2252.80;;;;;;5051522;28;20029;-62
2023/11/21 09:18:51;;;;;;;297.20;215.95;;;256.50;2252.80;;;;;;5052723;28;20025;-63
2023/11/21 09:21:17;;;;;;;305.15;229.48;;;256.30;2252.80;;;;;;5071640;28;20094;-61
2023/11/21 09:23:44;;;;;;;334.60;246.85;;;256.70;2252.80;;;;;;5071655;28;20111;-62
2023/11/21 09:26:10;;;;;;;333.40;257.63;;;256.70;2252.80;;;;;;5071618;28;20032;-62
2023/11/21 09:28:37;;;;;;;257.40;198.50;;;281.60;2278.40;;;;;;5071646;28;20020;-63
2023/11/21 09:31:08;;;;;;;282.33;223.57;;;256.80;2252.80;;;;;;5071587;28;20128;-61
2023/11/21 09:33:34;;;;;;;251.27;194.18;;;281.60;2278.40;;;;;;5064386;28;20037;-62
2023/11/21 09:36:01;;;;;;;219.20;171.55;;;256.80;2252.80;;;;;;5051459;28;20387;-62
2023/11/21 09:38:29;;;;;;;270.27;210.05;;;281.70;2278.40;;;;;;5051337;28;20425;-63
2023/11/21 09:40:54;;;;;;;312.33;240.55;;;281.60;2278.40;;;;;;5051620;28;20021;-62
2023/11/21 09:43:22;;;;;;;296.92;220.68;;;281.70;2278.40;;;;;;5051736;28;20155;-60
2023/11/21 09:45:53;;;;;;;258.42;198.95;;;282.00;2278.40;;;;;;5052027;28;20021;-61
2023/11/21 09:48:20;;;;;;;263.15;198.60;;;282.10;2278.40;;;;;;5051785;28;20044;-60
2023/11/21 09:50:47;;;;;;;220.00;176.90;;;282.10;2278.40;;;;;;5051133;28;20036;-60
2023/11/21 09:53:24;;;;;;;187.25;144.27;;;282.20;2278.40;;;;;;5051352;28;20506;-60
2023/11/21 09:55:53;;;;;;;169.48;129.52;;;282.20;2278.40;;;;;;5051489;28;20040;-60
2023/11/21 09:58:19;;;;;;;191.55;150.65;;;282.30;2278.40;;;;;;5051321;28;20021;-61
2023/11/21 10:00:47;;;;;;;149.38;115.28;;;282.30;2278.40;;;;;;5050523;28;20475;-61
2023/11/21 10:03:13;;;;;;;108.82;85.30;;;282.10;2278.40;;;;;;5050201;28;20126;-62
2023/11/21 10:05:41;;;;;;;119.22;91.80;;;282.10;2278.40;;;;;;5050374;28;20053;-62
2023/11/21 10:08:11;;;;;;;159.15;126.10;;;282.20;2278.40;;;;;;5050616;28;20031;-61
2023/11/21 10:10:43;;;;;;;155.05;125.68;;;282.20;2278.40;;;;;;5050610;28;20061;-60
2023/11/21 10:13:12;;;;;;;179.63;133.88;;;282.30;2278.40;;;;;;5050740;28;20103;-61
2023/11/21 10:15:38;;;;;;;111.97;92.60;;;282.40;2278.40;;;;;;5050665;28;20383;-61
2023/11/21 10:18:09;;;;;;;66.05;51.58;;;282.50;2278.40;;;;;;5050838;28;20048;-62
2023/11/21 10:20:37;;;;;;;102.47;76.20;;;307.30;2304.00;;;;;;5050842;28;20033;-62
2023/11/21 10:23:03;;;;;;;104.95;79.53;;;307.30;2304.00;;;;;;5050716;28;20452;-60
2023/11/21 10:25:29;;;;;;;100.95;74.75;;;307.30;2304.00;;;;;;5049839;28;20033;-60
2023/11/21 10:28:03;;;;;;;59.60;47.95;;;307.20;2304.00;;;;;;5050416;28;20021;-62
2023/11/21 10:30:32;;;;;;;;;;;307.30;2304.00;;;;;;5050501;28;20484;-60
2023/11/21 10:33:02;;;;;;;134.63;104.93;;;307.30;2304.00;;;;;;5050400;28;19908;-62
2023/11/21 10:35:51;;;;;;;159.48;124.05;;;307.30;2304.00;;;;;;5049782;28;20017;-60
2023/11/21 10:38:23;;;;;;;304.90;239.23;;;282.50;2278.40;;;;;;5050082;28;20029;-61
2023/11/21 10:40:49;;;;;;;344.88;262.98;;;282.10;2278.40;;;;;;5049705;28;20033;-62
2023/11/21 10:43:15;;;;;;;370.55;291.80;;;281.80;2278.40;;;;;;5050398;28;20024;-62
2023/11/21 10:45:43;;;;;;;335.90;274.88;;;281.70;2278.40;;;;;;5049995;28;20028;-61
2023/11/21 10:48:17;;;;;;;314.65;256.08;;;256.80;2252.80;;;;;;5050139;28;20021;-61
2023/11/21 10:50:45;;;;;;;197.65;156.02;;;256.90;2252.80;;;;;;5050304;28;20052;-61
2023/11/21 10:53:11;;;;;;;231.90;190.35;;;281.70;2278.40;;;;;;5049955;28;20024;-60
2023/11/21 10:55:37;;;;;;;331.45;269.30;;;281.90;2278.40;;;;;;5049944;28;20476;-61
2023/11/21 10:58:04;;;;;;;352.08;298.63;;;281.90;2278.40;;;;;;5050129;28;20028;-60
2023/11/21 11:00:34;;;;;;;383.52;310.55;;;281.70;2278.40;;;;;;5049609;28;20091;-60
2023/11/21 11:03:00;;;;;;;357.10;301.45;;;281.60;2278.40;;;;;;5049410;28;20487;-60
2023/11/21 11:05:37;;;;;;;373.75;306.52;;;256.90;1920.00;;;;;;5049747;28;20021;-60
2023/11/21 11:08:05;;;;;;;348.00;286.15;;;256.90;2252.80;;;;;;5049993;28;20108;-61
2023/11/21 11:10:31;;;;;;;341.60;283.73;;;281.60;2278.40;;;;;;5049583;28;20501;-60
2023/11/21 11:12:58;;;;;;;354.17;298.75;;;281.80;2278.40;;;;;;5049600;28;20021;-62
2023/11/21 11:15:28;;;;;;;187.32;147.82;;;282.00;2278.40;;;;;;5049791;28;20068;-61
2023/11/21 11:17:58;;;;;;;277.15;217.25;;;281.70;2278.40;;;;;;5049833;28;20074;-61
2023/11/21 11:20:33;;;;;;;271.27;219.43;;;281.60;2278.40;;;;;;5049772;28;20028;-61
2023/11/21 11:23:17;;;;;;;283.85;232.20;;;281.90;2278.40;;;;;;5050048;28;20491;-60
2023/11/21 11:26:11;;;;;;;305.42;241.93;;;282.20;2278.40;;;;;;5050245;28;20075;-60
2023/11/21 11:29:15;;;;;;;245.98;181.10;;;282.20;2278.40;;;;;;5050020;28;20529;-60
2023/11/21 11:31:50;;;;;;;239.63;167.18;;;281.70;2278.40;;;;;;5049785;28;20049;-60
2023/11/21 11:34:37;;;;;;;185.25;134.90;;;281.60;2278.40;;;;;;5049273;28;20029;-60
2023/11/21 11:37:05;;;;;;;201.23;139.68;;;256.90;2252.80;;;;;;5049375;28;20028;-60
2023/11/21 11:39:41;;;;;;;189.57;144.20;;;281.60;2278.40;;;;;;5049045;28;20029;-60
2023/11/21 11:42:17;;;;;;;207.10;154.60;;;281.90;2278.40;;;;;;5049708;28;20021;-60
2023/11/21 11:44:46;;;;;;;159.30;119.15;;;282.00;2278.40;;;;;;5045914;28;20021;-60
2023/11/21 11:47:15;;;;;;;142.68;110.55;;;282.00;2278.40;;;;;;5049139;28;20095;-61
2023/11/21 11:50:17;;;;;;;306.63;216.77;;;282.10;2278.40;;;;;;5049232;28;20031;-60
2023/11/21 11:52:47;;;;;;;225.18;176.32;;;282.20;2278.40;;;;;;5007404;28;20033;-60
2023/11/21 11:55:15;;;;;;;229.63;179.68;;;282.40;2278.40;;;;;;5007435;28;20040;-61